This is the latest recevied weather packets stored in our database for station/object OH2MUI. If no packets are shown the sender has not sent any weather packets the latest 1 day(s).
| Time | Temp. | Humidity | Pressure | Rain* | Wind** | Luminosity | Snow |
|---|---|---|---|---|---|---|---|
| 1778098704 | 3.89° C | 63% | 1016 hPa | 0 mm | - | - | - |
| 1778097524 | 4.44° C | 61% | 1016 hPa | 0 mm | - | - | - |
| 1778095404 | 6.11° C | 53% | 1015.8 hPa | 0 mm | - | - | - |
| 1778094279 | 6.67° C | 49% | 1015.7 hPa | 0 mm | - | - | - |
| 1778091099 | 10° C | 44% | 1015.4 hPa | 0 mm | - | - | - |
| 1778088869 | 11.11° C | 38% | 1015.1 hPa | 0 mm | - | - | - |
| 1778087834 | 11.11° C | 38% | 1015 hPa | 0 mm | - | - | - |
| 1778086789 | 11.67° C | 38% | 1015 hPa | 0 mm | - | - | - |
| 1778081664 | 11.11° C | 37% | 1014.8 hPa | 0 mm | - | - | - |
| 1778080479 | 11.11° C | 38% | 1014.7 hPa | 0 mm | - | - | - |
| 1778079509 | 11.11° C | 37% | 1014.7 hPa | 0 mm | - | - | - |
| 1778078349 | 11.11° C | 38% | 1014.7 hPa | 0 mm | - | - | - |
| 1778075999 | 10.56° C | 37% | 1014.8 hPa | 0 mm | - | - | - |
| 1778073859 | 10.56° C | 39% | 1014.7 hPa | 0 mm | - | - | - |
| 1778072664 | 10.56° C | 40% | 1014.7 hPa | 0 mm | - | - | - |
| 1778071654 | 10.56° C | 42% | 1014.8 hPa | 0 mm | - | - | - |
| 1778070499 | 10.56° C | 40% | 1014.8 hPa | 0 mm | - | - | - |
| 1778069419 | 11.11° C | 39% | 1014.7 hPa | 0 mm | - | - | - |
| 1778068329 | 10.56° C | 44% | 1014.7 hPa | 0 mm | - | - | - |
| 1778066124 | 10.56° C | 40% | 1015 hPa | 0 mm | - | - | - |
| 1778062889 | 10.56° C | 43% | 1014.7 hPa | 0 mm | - | - | - |
| 1778061849 | 10.56° C | 42% | 1014.8 hPa | 0 mm | - | - | - |
| 1778060709 | 10.56° C | 45% | 1014.6 hPa | 0 mm | - | - | - |
| 1778059684 | 10° C | 48% | 1014.6 hPa | 0 mm | - | - | - |
| 1778058664 | 9.44° C | 49% | 1014.5 hPa | 0 mm | - | - | - |
* Rain latest hour (hover to see other rain measurements)
** Current wind speed in m/s (hover to see current wind gust speed)